Terminal Aerodrome Forecast
Issued by NWS Jackson, KY

Home | Current Version | Previous Version | Graphics & Text | Print | Product List | Glossary On
Versions: 1 2 3 4 5 6 7 8 9 10 11 12 13 14 15 16 17 18 19 20 21 22 23 24 25 26 27 28 29 30 31 32 33
000
FTUS43 KJKL 051130 AAA
TAFJKL
TAF AMD
KJKL 051130Z 0512/0612 03007KT 1SM -SN BR FEW007 OVC011
     FM051500 05006KT 2SM -SN BR SCT005 OVC012
     FM052200 06007KT P6SM BKN020
     FM060200 03004KT P6SM SCT025=

USA.gov is the U.S. government's official web portal to all federal, state and local government web resources and services.